Time;durP1;ratioP1;P1;durP2;ratioP2;P2;SDS_P1;SDS_P2;PMS_P1;PMS_P2;Temp;Humidity;BMP_temperature;BMP_pressure;BME280_temperature;BME280_humidity;BME280_pressure;Samples;Min_cycle;Max_cycle;Signal;HPM_P1;HPM_P2
2023/05/25 00:00:35;;;;;;;10.70;3.78;;;;;;;-142.75;100.00;78090.25;5027322;28;20060;-66
2023/05/25 00:03:02;;;;;;;9.18;3.85;;;;;;;-142.75;100.00;78098.13;5027610;28;20033;-66
2023/05/25 00:05:27;;;;;;;9.07;3.75;;;;;;;-142.75;100.00;78115.84;5009449;28;20988;-66
2023/05/25 00:07:54;;;;;;;13.40;3.45;;;;;;;-142.75;100.00;78113.88;5027643;28;20108;-66
2023/05/25 00:10:20;;;;;;;8.85;2.92;;;;;;;-142.75;100.00;78119.78;5026857;28;20017;-66
2023/05/25 00:12:45;;;;;;;14.60;4.28;;;;;;;-142.75;100.00;78115.84;5026862;28;20026;-67
2023/05/25 00:15:13;;;;;;;12.10;3.47;;;;;;;-142.75;100.00;78102.06;5027328;28;20547;-65
2023/05/25 00:17:39;;;;;;;10.98;3.80;;;;;;;-142.75;100.00;78117.81;5009875;28;20030;-66
2023/05/25 00:20:06;;;;;;;12.52;3.10;;;;;;;-142.75;100.00;78123.72;5027111;28;20026;-66
2023/05/25 00:22:35;;;;;;;12.65;3.28;;;;;;;-142.75;100.00;78123.72;5027355;28;20038;-67
2023/05/25 00:25:05;;;;;;;8.65;3.30;;;;;;;-142.75;100.00;78125.69;5027182;28;20028;-66
2023/05/25 00:27:30;;;;;;;11.65;3.60;;;;;;;-142.75;100.00;78113.88;5027085;28;20112;-66
2023/05/25 00:29:56;;;;;;;10.95;3.40;;;;;;;-142.75;100.00;78113.88;5026526;28;20104;-66
2023/05/25 00:32:21;;;;;;;10.43;4.15;;;;;;;-142.75;100.00;78109.94;5026754;28;20029;-66
2023/05/25 00:34:47;;;;;;;11.73;3.13;;;;;;;-142.75;100.00;78111.91;5027035;28;20030;-66
2023/05/25 00:37:12;;;;;;;12.13;3.67;;;;;;;-142.75;100.00;78102.06;5026777;28;20021;-65
2023/05/25 00:39:38;;;;;;;10.32;3.97;;;;;;;-142.75;100.00;78109.94;5026575;28;20044;-66
2023/05/25 00:42:05;;;;;;;9.15;3.80;;;;;;;-142.75;100.00;78082.38;5026767;28;20155;-66
2023/05/25 00:44:30;;;;;;;9.15;3.47;;;;;;;-142.75;100.00;78086.31;5026342;28;20025;-66
2023/05/25 00:46:56;;;;;;;12.27;3.45;;;;;;;-142.75;100.00;78076.47;5026836;28;20025;-66
2023/05/25 00:49:22;;;;;;;9.73;3.85;;;;;;;-142.75;100.00;78076.47;5026538;28;20043;-66
2023/05/25 00:51:48;;;;;;;14.93;4.25;;;;;;;-142.75;100.00;78072.53;5026725;28;20021;-66
2023/05/25 00:54:18;;;;;;;10.55;3.60;;;;;;;-142.75;100.00;78090.25;5026158;28;20394;-66
2023/05/25 00:56:48;;;;;;;5.07;2.90;;;;;;;-142.75;100.00;78090.25;5026292;28;20396;-66
2023/05/25 00:59:27;;;;;;;7.82;3.10;;;;;;;-142.75;100.00;78082.38;5025963;28;20022;-66
2023/05/25 01:01:54;;;;;;;6.65;3.33;;;;;;;-142.75;100.00;78088.28;5024843;28;20040;-65
2023/05/25 01:04:21;;;;;;;9.32;3.58;;;;;;;-142.75;100.00;78090.25;5026049;28;20433;-66
2023/05/25 01:06:48;;;;;;;13.25;3.72;;;;;;;-142.75;100.00;78086.31;5025796;28;20029;-66
2023/05/25 01:09:16;;;;;;;11.95;4.00;;;;;;;-142.75;100.00;78098.13;5025831;28;20397;-66
2023/05/25 01:11:43;;;;;;;7.80;3.40;;;;;;;-142.75;100.00;78098.13;5026145;28;20557;-65
2023/05/25 01:14:09;;;;;;;12.05;3.90;;;;;;;-142.75;100.00;78113.88;5026158;28;20433;-65
2023/05/25 01:16:36;;;;;;;10.57;3.50;;;;;;;-142.75;100.00;78113.88;5025672;28;20048;-66
2023/05/25 01:19:02;;;;;;;9.88;4.20;;;;;;;-142.75;100.00;78117.81;5026243;28;20904;-65
2023/05/25 01:21:44;;;;;;;10.65;3.72;;;;;;;-142.75;100.00;78125.69;5025433;28;20133;-66
2023/05/25 01:24:21;;;;;;;11.70;4.00;;;;;;;-142.75;100.00;78125.69;5025698;28;20044;-64
2023/05/25 01:26:51;;;;;;;;;;;;;;;-142.75;100.00;78113.88;5026358;28;20108;-66
2023/05/25 01:29:18;;;;;;;8.18;3.78;;;;;;;-142.75;100.00;78123.72;5025669;28;19956;-66
2023/05/25 01:31:45;;;;;;;13.05;3.70;;;;;;;-142.75;100.00;78139.47;5025779;28;20079;-66
2023/05/25 01:34:13;;;;;;;7.20;3.80;;;;;;;-142.75;100.00;78131.59;5025653;28;20584;-65
2023/05/25 01:36:39;;;;;;;16.00;4.70;;;;;;;-142.75;100.00;78121.75;5008679;28;20018;-66
2023/05/25 01:39:05;;;;;;;13.43;4.03;;;;;;;-142.75;100.00;78113.88;5027249;28;20044;-65
2023/05/25 01:41:30;;;;;;;8.77;4.30;;;;;;;-142.75;100.00;78100.09;5026631;28;20052;-65
2023/05/25 01:43:56;;;;;;;12.50;4.13;;;;;;;-142.75;100.00;78119.78;5024430;28;20061;-65
2023/05/25 01:46:31;;;;;;;9.38;4.03;;;;;;;-142.75;100.00;78113.88;5025947;28;20029;-66
2023/05/25 01:49:16;;;;;;;9.07;4.07;;;;;;;-142.75;100.00;78139.47;5026112;28;20079;-66
2023/05/25 01:52:17;;;;;;;11.70;4.75;;;;;;;-142.75;100.00;78141.44;5023777;28;20303;-65
2023/05/25 01:55:13;;;;;;;14.48;4.68;;;;;;;-142.75;100.00;78129.63;5024968;28;20021;-66
2023/05/25 01:57:44;;;;;;;15.93;5.07;;;;;;;-142.75;100.00;78121.75;5023664;28;20040;-66
2023/05/25 02:00:14;;;;;;;12.27;5.80;;;;;;;-142.75;100.00;78121.75;5024773;28;20090;-65
2023/05/25 02:02:42;;;;;;;12.30;4.60;;;;;;;-142.75;100.00;78137.50;5025751;28;20029;-65
2023/05/25 02:05:08;;;;;;;12.07;5.40;;;;;;;-142.75;100.00;78121.75;5025849;28;20087;-65
2023/05/25 02:07:35;;;;;;;11.43;5.10;;;;;;;-142.75;100.00;78131.59;5024227;28;20159;-66
2023/05/25 02:10:00;;;;;;;15.48;5.75;;;;;;;-142.75;100.00;78141.44;5025289;28;20036;-66
2023/05/25 02:12:25;;;;;;;10.35;4.93;;;;;;;-142.75;100.00;78153.25;5025227;28;20029;-65
2023/05/25 02:14:51;;;;;;;16.98;5.82;;;;;;;-142.75;100.00;78151.28;5025339;28;20430;-66
2023/05/25 02:17:19;;;;;;;13.70;4.60;;;;;;;-142.75;100.00;78145.38;5025384;28;20513;-65
2023/05/25 02:19:46;;;;;;;8.77;4.55;;;;;;;-142.75;100.00;78155.22;5025637;28;20039;-66
2023/05/25 02:22:11;;;;;;;9.80;5.30;;;;;;;-142.75;100.00;78149.31;5025004;28;20025;-65
2023/05/25 02:24:37;;;;;;;10.00;5.10;;;;;;;-142.75;100.00;78141.44;5025613;28;20481;-65
2023/05/25 02:27:04;;;;;;;14.27;6.25;;;;;;;-142.75;100.00;78129.63;5025190;28;20029;-67
2023/05/25 02:29:30;;;;;;;12.88;5.25;;;;;;;-142.75;100.00;78125.69;5027518;28;20087;-65
2023/05/25 02:31:55;;;;;;;16.33;5.78;;;;;;;-142.75;100.00;78109.94;5028992;28;20029;-66
2023/05/25 02:34:20;;;;;;;13.07;6.00;;;;;;;-142.75;100.00;78109.94;5028934;28;20037;-66
2023/05/25 02:36:46;;;;;;;11.30;5.53;;;;;;;-142.75;100.00;78090.25;5028674;28;20025;-66
2023/05/25 02:39:11;;;;;;;13.07;5.63;;;;;;;-142.75;100.00;78070.56;5026846;28;20025;-65
2023/05/25 02:41:37;;;;;;;13.60;6.20;;;;;;;-142.75;100.00;78054.81;5029236;28;20033;-65
2023/05/25 02:44:02;;;;;;;14.18;6.85;;;;;;;-142.75;100.00;78062.69;5029143;28;20041;-66
2023/05/25 02:46:28;;;;;;;13.63;6.60;;;;;;;-142.75;100.00;78054.81;5028499;28;20053;-65
2023/05/25 02:48:53;;;;;;;13.63;6.35;;;;;;;-142.75;100.00;78050.84;5027911;28;20091;-65
2023/05/25 02:51:18;;;;;;;13.02;6.65;;;;;;;-142.75;100.00;78054.81;5028749;28;20037;-66
2023/05/25 02:53:44;;;;;;;14.35;6.40;;;;;;;-142.75;100.00;78044.94;5028721;28;20490;-66
2023/05/25 02:56:09;;;;;;;17.67;7.45;;;;;;;-142.75;100.00;78048.88;5028839;28;20479;-66
2023/05/25 02:58:36;;;;;;;14.55;6.45;;;;;;;-142.75;100.00;78041.00;5010639;28;20057;-66
2023/05/25 03:01:03;;;;;;;14.25;7.47;;;;;;;-142.75;100.00;78033.13;5028180;28;20044;-65
2023/05/25 03:03:29;;;;;;;15.43;6.60;;;;;;;-142.75;100.00;78039.03;5028330;28;20482;-66
2023/05/25 03:05:55;;;;;;;16.25;6.97;;;;;;;-142.75;100.00;78060.72;5028298;28;20033;-66
2023/05/25 03:08:21;;;;;;;13.38;6.63;;;;;;;-142.75;100.00;78052.81;5028382;28;20025;-66
2023/05/25 03:10:46;;;;;;;11.93;6.03;;;;;;;-142.75;100.00;78060.72;5028069;28;20385;-66
2023/05/25 03:13:12;;;;;;;12.32;6.25;;;;;;;-142.75;100.00;78070.56;5028442;28;20104;-65
2023/05/25 03:15:38;;;;;;;15.07;7.05;;;;;;;-142.75;100.00;78078.44;5028572;28;20033;-66
2023/05/25 03:18:04;;;;;;;14.05;6.95;;;;;;;-142.75;100.00;78080.41;5028666;28;20037;-65
2023/05/25 03:20:33;;;;;;;15.18;7.10;;;;;;;-142.75;100.00;78088.28;5009927;28;20036;-66
2023/05/25 03:22:58;;;;;;;14.80;7.15;;;;;;;-142.75;100.00;78082.38;5028204;28;20037;-65
2023/05/25 03:25:23;;;;;;;18.73;7.18;;;;;;;-142.75;100.00;78100.09;5027979;28;20034;-66
2023/05/25 03:27:55;;;;;;;13.25;6.40;;;;;;;-142.75;100.00;78107.97;5027791;28;20030;-66
2023/05/25 03:30:24;;;;;;;13.32;6.95;;;;;;;-142.75;100.00;78109.94;5027313;28;20034;-65
2023/05/25 03:32:49;;;;;;;12.68;6.03;;;;;;;-142.75;100.00;78117.81;5028091;28;20083;-66
2023/05/25 03:35:14;;;;;;;15.48;6.68;;;;;;;-142.75;100.00;78117.81;5027626;28;20037;-65
2023/05/25 03:37:40;;;;;;;14.40;6.23;;;;;;;-142.75;100.00;78125.69;5028261;28;20029;-66
2023/05/25 03:40:08;;;;;;;10.10;5.45;;;;;;;-142.75;100.00;78135.53;5027155;28;20104;-66
2023/05/25 03:42:33;;;;;;;11.27;5.85;;;;;;;-142.75;100.00;78125.69;5027609;28;20053;-65
2023/05/25 03:44:58;;;;;;;13.82;7.53;;;;;;;-142.75;100.00;78111.91;5027619;28;20525;-66
2023/05/25 03:47:24;;;;;;;16.67;7.35;;;;;;;-142.75;100.00;78098.13;5027354;28;20030;-66
2023/05/25 03:49:49;;;;;;;17.85;7.20;;;;;;;-142.75;100.00;78088.28;5027698;28;20402;-66
2023/05/25 03:52:15;;;;;;;17.17;7.77;;;;;;;-142.75;100.00;78088.28;5009671;28;20036;-65
2023/05/25 03:54:40;;;;;;;17.48;7.25;;;;;;;-142.75;100.00;78088.28;5027755;28;20031;-66
2023/05/25 03:57:05;;;;;;;20.67;7.70;;;;;;;-142.75;100.00;78096.16;5009769;28;20029;-66
2023/05/25 03:59:31;;;;;;;17.67;7.17;;;;;;;-142.75;100.00;78090.25;5026936;28;20044;-65
2023/05/25 04:01:56;;;;;;;16.25;7.45;;;;;;;-142.75;100.00;78100.09;5027490;28;20077;-66
2023/05/25 04:04:21;;;;;;;13.07;6.22;;;;;;;-142.75;100.00;78100.09;5009400;28;20028;-66
2023/05/25 04:06:47;;;;;;;11.23;5.80;;;;;;;-142.75;100.00;78109.94;5027226;28;20064;-66
2023/05/25 04:09:14;;;;;;;12.73;6.13;;;;;;;-142.75;100.00;78125.69;5027251;28;20627;-66
2023/05/25 04:11:39;;;;;;;14.93;6.22;;;;;;;-142.75;100.00;78131.59;5027814;28;20108;-66
2023/05/25 04:14:05;;;;;;;13.50;6.40;;;;;;;-142.75;100.00;78129.63;5027618;28;20120;-66
2023/05/25 04:16:30;;;;;;;11.18;6.63;;;;;;;-142.75;100.00;78135.53;5027279;28;20213;-67
2023/05/25 04:18:56;;;;;;;10.20;6.20;;;;;;;-142.75;100.00;78143.41;5028479;28;20079;-66
2023/05/25 04:21:21;;;;;;;11.50;4.95;;;;;;;-142.75;100.00;78137.50;5027034;28;20141;-66
2023/05/25 04:23:47;;;;;;;7.88;4.20;;;;;;;-142.75;100.00;78135.53;5027263;28;20029;-66
2023/05/25 04:26:14;;;;;;;11.95;5.85;;;;;;;-142.75;100.00;78131.59;5027019;28;20026;-65
2023/05/25 04:28:39;;;;;;;14.63;6.78;;;;;;;-142.75;100.00;78115.84;5025654;28;20033;-65
2023/05/25 04:31:05;;;;;;;11.20;6.18;;;;;;;-142.75;100.00;78106.00;5026187;28;20471;-66
2023/05/25 04:33:33;;;;;;;16.85;6.78;;;;;;;-142.75;100.00;78084.34;5026730;28;20033;-65
2023/05/25 04:35:59;;;;;;;14.25;5.88;;;;;;;-142.75;100.00;78078.44;5009171;28;20376;-65
2023/05/25 04:38:24;;;;;;;15.30;7.00;;;;;;;-142.75;100.00;78080.41;5026529;28;20094;-66
2023/05/25 04:40:53;;;;;;;13.18;6.75;;;;;;;-142.75;100.00;78058.72;5026177;28;20033;-65
2023/05/25 04:43:19;;;;;;;16.17;6.95;;;;;;;-142.75;100.00;78054.81;5026363;28;20115;-65
2023/05/25 04:45:45;;;;;;;14.60;7.25;;;;;;;-142.75;100.00;78044.94;5026374;28;20100;-66
2023/05/25 04:48:12;;;;;;;12.82;7.40;;;;;;;-142.75;100.00;78009.50;5025763;28;20132;-66
2023/05/25 04:50:39;;;;;;;16.70;7.25;;;;;;;-142.75;100.00;77999.66;5026316;28;20048;-66
2023/05/25 04:53:04;;;;;;;15.95;7.18;;;;;;;-142.75;100.00;77987.84;5026208;28;20039;-66
2023/05/25 04:55:29;;;;;;;16.92;7.32;;;;;;;-142.75;100.00;77983.91;5025836;28;20044;-65
2023/05/25 04:57:55;;;;;;;16.77;7.18;;;;;;;-142.75;100.00;77989.81;5026454;28;20561;-65
2023/05/25 05:00:20;;;;;;;14.15;7.03;;;;;;;-142.75;100.00;78015.41;5025691;28;20104;-66
2023/05/25 05:02:46;;;;;;;11.43;5.97;;;;;;;-142.75;100.00;78013.44;5026403;28;20363;-66
2023/05/25 05:05:11;;;;;;;11.10;6.10;;;;;;;-142.75;100.00;77985.88;5026428;28;20032;-65
2023/05/25 05:07:37;;;;;;;11.80;5.57;;;;;;;-142.75;100.00;77968.16;5026057;28;20409;-66
2023/05/25 05:10:03;;;;;;;12.88;5.85;;;;;;;-142.75;100.00;77948.47;5006689;28;20025;-66
2023/05/25 05:12:28;;;;;;;10.85;5.85;;;;;;;-142.75;100.00;77966.19;5025559;28;20578;-65
2023/05/25 05:14:54;;;;;;;11.15;6.25;;;;;;;-142.75;100.00;77983.91;5025937;28;20100;-66
2023/05/25 05:17:20;;;;;;;11.05;5.90;;;;;;;-142.75;100.00;77948.47;5024796;28;20021;-66
2023/05/25 05:19:45;;;;;;;11.85;5.80;;;;;;;-142.75;100.00;77940.59;5026203;28;20148;-66
2023/05/25 05:22:14;;;;;;;12.75;6.65;;;;;;;-142.75;100.00;77928.78;5026256;28;20109;-66
2023/05/25 05:24:39;;;;;;;18.95;6.30;;;;;;;-142.75;100.00;77915.00;5008454;28;20434;-66
2023/05/25 05:27:04;;;;;;;13.85;5.80;;;;;;;-142.75;100.00;77897.25;5026105;28;20025;-66
2023/05/25 05:29:30;;;;;;;14.35;6.40;;;;;;;-142.75;100.00;77893.31;5025408;28;20498;-65
2023/05/25 05:31:55;;;;;;;16.98;6.45;;;;;;;-142.75;100.00;77889.38;5025895;28;20037;-66
2023/05/25 05:34:21;;;;;;;11.73;6.07;;;;;;;-142.75;100.00;77881.50;5025630;28;20053;-66
2023/05/25 05:36:46;;;;;;;14.93;5.50;;;;;;;-142.75;100.00;77887.41;5025787;28;20025;-65
2023/05/25 05:39:12;;;;;;;12.52;5.88;;;;;;;-142.75;100.00;77877.56;5025842;28;20033;-66
2023/05/25 05:41:37;;;;;;;16.17;5.22;;;;;;;-142.75;100.00;77857.88;5024267;28;20036;-65
2023/05/25 05:44:03;;;;;;;12.57;5.78;;;;;;;-142.75;100.00;77857.88;5025556;28;20398;-66
2023/05/25 05:46:28;;;;;;;12.35;5.80;;;;;;;-142.75;100.00;77859.84;5025391;28;20437;-65
2023/05/25 05:48:53;;;;;;;13.88;5.15;;;;;;;-142.75;100.00;77869.69;5025921;28;20036;-66
2023/05/25 05:51:18;;;;;;;9.93;5.38;;;;;;;-142.75;100.00;77836.22;5025174;28;20017;-65
2023/05/25 05:53:44;;;;;;;12.13;4.97;;;;;;;-142.75;100.00;77842.13;5025591;28;20017;-64
2023/05/25 05:56:16;;;;;;;9.15;4.45;;;;;;;-142.75;100.00;77830.31;5025785;28;20510;-66
2023/05/25 05:58:41;;;;;;;9.57;4.20;;;;;;;-142.75;100.00;77840.16;5025587;28;20423;-65
2023/05/25 06:01:07;;;;;;;8.55;4.32;;;;;;;-142.75;100.00;77840.16;5025025;28;20041;-66
2023/05/25 06:03:33;;;;;;;9.43;3.47;;;;;;;-142.75;100.00;77830.31;5026958;28;20245;-65
2023/05/25 06:05:58;;;;;;;11.20;4.95;;;;;;;-142.75;100.00;77822.44;5029347;28;20513;-66
2023/05/25 06:08:24;;;;;;;9.55;3.80;;;;;;;-142.75;100.00;77818.50;5029207;28;20021;-66
2023/05/25 06:10:50;;;;;;;9.45;3.85;;;;;;;-142.75;100.00;77810.63;5029167;28;20468;-65
2023/05/25 06:13:15;;;;;;;8.10;2.95;;;;;;;-142.75;100.00;77787.00;5028737;28;20021;-65
2023/05/25 06:15:40;;;;;;;10.43;3.67;;;;;;;-142.75;100.00;77783.06;5028413;28;20041;-65
2023/05/25 06:18:06;;;;;;;5.57;2.63;;;;;;;-142.75;100.00;77796.84;5028521;28;20053;-65
2023/05/25 06:20:31;;;;;;;7.93;3.25;;;;;;;-142.75;100.00;77773.22;5028392;28;20110;-66
2023/05/25 06:22:57;;;;;;;9.75;4.05;;;;;;;-142.75;100.00;77769.28;5027728;28;20021;-66
2023/05/25 06:25:22;;;;;;;10.93;3.47;;;;;;;-142.75;100.00;77788.97;5026973;28;20029;-65
2023/05/25 06:27:49;;;;;;;6.95;2.78;;;;;;;-142.75;100.00;77767.31;5026351;28;20048;-65
2023/05/25 06:30:15;;;;;;;8.65;3.72;;;;;;;-142.75;100.00;77735.81;5027827;28;20481;-65
2023/05/25 06:32:42;;;;;;;7.32;3.28;;;;;;;-142.75;100.00;77733.84;5029276;28;20229;-66
2023/05/25 06:35:08;;;;;;;8.27;3.05;;;;;;;-142.75;100.00;77720.03;5028355;28;20645;-67
2023/05/25 06:37:36;;;;;;;6.45;2.97;;;;;;;-142.75;100.00;77725.97;5028871;28;20025;-65
2023/05/25 06:40:03;;;;;;;5.68;2.08;;;;;;;-142.75;100.00;77731.88;5027691;28;20056;-66
2023/05/25 06:42:29;;;;;;;7.68;2.60;;;;;;;-142.75;100.00;77706.25;5028427;28;20734;-65
2023/05/25 06:44:54;;;;;;;5.78;2.30;;;;;;;-142.75;100.00;77672.78;5028899;28;20084;-65
2023/05/25 06:47:20;;;;;;;8.77;3.22;;;;;;;-142.75;100.00;77698.38;5028946;28;20033;-65
2023/05/25 06:49:45;;;;;;;6.45;3.10;;;;;;;-142.75;100.00;77670.81;5028438;28;20094;-65
2023/05/25 06:52:10;;;;;;;7.05;2.88;;;;;;;-142.75;100.00;77657.03;5028909;28;20033;-66
2023/05/25 06:54:36;;;;;;;8.63;2.85;;;;;;;-142.75;100.00;77686.56;5028431;28;20022;-66
2023/05/25 06:57:01;;;;;;;11.88;2.53;;;;;;;-142.75;100.00;77704.28;5028657;28;20713;-66
2023/05/25 06:59:26;;;;;;;9.63;3.40;;;;;;;-142.75;100.00;77680.66;5028035;28;20021;-65
2023/05/25 07:01:52;;;;;;;8.63;2.90;;;;;;;-142.75;100.00;77692.47;5026801;28;20029;-66
2023/05/25 07:04:18;;;;;;;8.18;2.90;;;;;;;-142.75;100.00;77666.88;5027553;28;20091;-65
2023/05/25 07:06:43;;;;;;;11.43;3.58;;;;;;;-142.75;100.00;77647.19;5028316;28;20018;-66
2023/05/25 07:09:09;;;;;;;9.73;3.25;;;;;;;-142.75;100.00;77641.28;5028157;28;20561;-66
2023/05/25 07:11:35;;;;;;;7.72;3.13;;;;;;;-142.75;100.00;77621.59;5027137;28;20206;-66
2023/05/25 07:14:00;;;;;;;8.70;3.13;;;;;;;-142.75;100.00;77657.03;5026825;28;20116;-65
2023/05/25 07:16:25;;;;;;;8.85;3.13;;;;;;;-142.75;100.00;77621.59;5028095;28;20402;-66
2023/05/25 07:18:51;;;;;;;12.23;2.70;;;;;;;-142.75;100.00;77617.66;5027691;28;20049;-66
2023/05/25 07:21:16;;;;;;;9.85;2.80;;;;;;;-142.75;100.00;77597.97;5027936;28;20032;-65
2023/05/25 07:23:41;;;;;;;7.93;2.72;;;;;;;-142.75;100.00;77609.78;5028126;28;20021;-66
2023/05/25 07:26:07;;;;;;;5.45;2.40;;;;;;;-142.75;100.00;77603.88;5028347;28;20494;-66
2023/05/25 07:28:32;;;;;;;7.47;2.45;;;;;;;-142.75;100.00;77625.53;5028021;28;20514;-66
2023/05/25 07:30:58;;;;;;;9.13;2.55;;;;;;;-142.75;100.00;77664.91;5028247;28;20022;-67
2023/05/25 07:33:23;;;;;;;9.70;3.00;;;;;;;-142.75;100.00;77660.97;5028185;28;20104;-66
2023/05/25 07:35:50;;;;;;;4.82;2.35;;;;;;;-142.75;100.00;77727.94;5027802;28;20029;-65
2023/05/25 07:38:15;;;;;;;6.57;2.70;;;;;;;-142.75;100.00;77676.72;5026278;28;20045;-64
2023/05/25 07:40:41;;;;;;;9.50;2.78;;;;;;;-142.75;100.00;77660.97;5027725;28;20090;-65
2023/05/25 07:43:07;;;;;;;8.75;2.17;;;;;;;-142.75;100.00;77698.38;5028177;28;20487;-65
2023/05/25 07:45:33;;;;;;;9.48;2.97;;;;;;;-142.75;100.00;77708.22;5027895;28;20025;-66
2023/05/25 07:47:58;;;;;;;6.05;2.47;;;;;;;-142.75;100.00;77718.06;5028450;28;20028;-65
2023/05/25 07:50:23;;;;;;;4.93;2.50;;;;;;;-142.75;100.00;77731.88;5026400;28;20017;-66
2023/05/25 07:52:48;;;;;;;9.20;2.67;;;;;;;-142.75;100.00;77723.97;5027787;28;20708;-66
2023/05/25 07:55:14;;;;;;;11.98;3.00;;;;;;;-142.75;100.00;77747.63;5028183;28;20021;-66
2023/05/25 07:57:39;;;;;;;10.43;3.17;;;;;;;-142.75;100.00;77729.88;5027816;28;20026;-67
2023/05/25 08:00:07;;;;;;;8.23;2.60;;;;;;;-142.75;100.00;77741.72;5027308;28;20048;-65
2023/05/25 08:02:32;;;;;;;9.10;2.90;;;;;;;-142.75;100.00;77751.56;5026804;28;20402;-65
2023/05/25 08:05:02;;;;;;;9.52;2.63;;;;;;;-142.75;100.00;77727.94;5028007;28;20036;-65
2023/05/25 08:07:27;;;;;;;7.47;2.65;;;;;;;-142.75;100.00;77714.13;5026564;28;20100;-65
2023/05/25 08:09:53;;;;;;;9.20;2.80;;;;;;;-142.75;100.00;77714.13;5027153;28;20478;-65
2023/05/25 08:12:18;;;;;;;7.03;2.53;;;;;;;-142.75;100.00;77727.94;5027377;28;20029;-65
2023/05/25 08:14:43;;;;;;;4.88;2.85;;;;;;;-142.75;100.00;77720.03;5027544;28;20025;-67
2023/05/25 08:17:09;;;;;;;8.93;2.70;;;;;;;-142.75;100.00;77755.50;5027611;28;20033;-66
2023/05/25 08:19:34;;;;;;;8.10;2.67;;;;;;;-142.75;100.00;77751.56;5026964;28;20102;-65
2023/05/25 08:22:00;;;;;;;10.05;3.17;;;;;;;-142.75;100.00;77694.44;5026194;28;20086;-66
2023/05/25 08:24:25;;;;;;;9.90;3.05;;;;;;;-142.75;100.00;77637.34;5027421;28;20060;-66
2023/05/25 08:26:50;;;;;;;9.75;2.67;;;;;;;-142.75;100.00;77597.97;5027239;28;20486;-67
2023/05/25 08:29:17;;;;;;;10.20;2.88;;;;;;;-142.75;100.00;77558.59;5027413;28;20096;-65
2023/05/25 08:31:44;;;;;;;10.18;2.85;;;;;;;-142.75;100.00;77531.03;5027269;28;20013;-66
2023/05/25 08:34:10;;;;;;;6.95;2.40;;;;;;;-142.75;100.00;77471.97;5026024;28;20108;-66
2023/05/25 08:36:35;;;;;;;8.10;2.75;;;;;;;-142.75;100.00;77446.34;5027119;28;20142;-66
2023/05/25 08:39:02;;;;;;;8.20;2.70;;;;;;;-142.75;100.00;77430.59;5026874;28;20445;-65
2023/05/25 08:41:28;;;;;;;8.35;2.65;;;;;;;-142.75;100.00;77430.59;5026911;28;20541;-66
2023/05/25 08:43:54;;;;;;;10.23;2.50;;;;;;;-142.75;100.00;77393.19;5026058;28;20513;-65
2023/05/25 08:46:32;;;;;;;8.43;2.90;;;;;;;-142.75;100.00;77365.63;5026939;28;20029;-65
2023/05/25 08:49:01;;;;;;;9.63;2.58;;;;;;;-142.75;100.00;77330.19;5026527;28;20066;-65
2023/05/25 08:51:32;;;;;;;5.78;2.30;;;;;;;-142.75;100.00;77300.66;5026939;28;20052;-66
2023/05/25 08:54:05;;;;;;;9.60;2.97;;;;;;;-142.75;95.65;77308.53;5026241;28;20025;-66
2023/05/25 08:56:35;;;;;;;6.97;2.33;;;;;;;-142.75;96.70;77357.75;5026816;28;20063;-65
2023/05/25 08:59:16;;;;;;;8.45;2.50;;;;;;;-142.75;93.01;77428.63;5026242;28;20029;-65
2023/05/25 09:01:46;;;;;;;6.07;2.90;;;;;;;-142.75;98.24;77468.03;5026947;28;20029;-66
2023/05/25 09:04:18;;;;;;;8.90;2.20;;;;;;;-142.75;99.85;77533.00;5027029;28;20083;-65
2023/05/25 09:06:44;;;;;;;9.38;2.72;;;;;;;-142.75;100.00;77546.78;5026813;28;20567;-65
2023/05/25 09:09:11;;;;;;;6.63;2.15;;;;;;;-142.75;100.00;77647.19;5026491;28;20028;-65
2023/05/25 09:11:38;;;;;;;5.55;1.67;;;;;;;-142.75;100.00;77641.28;5026494;28;20063;-65
2023/05/25 09:14:04;;;;;;;4.05;2.22;;;;;;;-142.75;100.00;77684.59;5025531;28;20079;-65
2023/05/25 09:16:31;;;;;;;4.65;1.63;;;;;;;-142.75;100.00;77666.88;5026405;28;20442;-65
2023/05/25 09:18:57;;;;;;;4.50;1.50;;;;;;;-142.75;100.00;77641.28;5026473;28;20087;-65
2023/05/25 09:21:22;;;;;;;5.43;2.22;;;;;;;-142.75;100.00;77605.84;5026194;28;20021;-66
2023/05/25 09:23:48;;;;;;;6.53;1.75;;;;;;;-142.75;100.00;77597.97;5008701;28;20067;-65
2023/05/25 09:26:14;;;;;;;7.40;2.10;;;;;;;-142.75;100.00;77580.25;5026720;28;20405;-66
2023/05/25 09:28:46;;;;;;;8.90;1.80;;;;;;;-142.75;100.00;77544.81;5026254;28;20021;-66
2023/05/25 09:31:12;;;;;;;5.70;2.33;;;;;;;-142.75;100.00;77513.31;5026172;28;20021;-66
2023/05/25 09:33:41;;;;;;;3.95;2.03;;;;;;;-142.75;100.00;77523.16;5026257;28;20052;-65
2023/05/25 09:36:06;;;;;;;7.53;1.70;;;;;;;-142.75;100.00;77558.59;5026574;28;20235;-65
2023/05/25 09:38:32;;;;;;;6.75;2.00;;;;;;;-142.75;100.00;77556.63;5025659;28;20119;-65
2023/05/25 09:40:58;;;;;;;5.85;1.83;;;;;;;-142.75;100.00;77546.78;5025967;28;20515;-66
2023/05/25 09:43:23;;;;;;;8.43;2.15;;;;;;;-142.75;100.00;77534.97;5026153;28;20022;-65
2023/05/25 09:45:51;;;;;;;8.32;2.17;;;;;;;-142.75;100.00;77570.41;5026076;28;20021;-65
2023/05/25 09:48:17;;;;;;;7.03;1.80;;;;;;;-142.75;100.00;77574.34;5026169;28;20048;-65
2023/05/25 09:50:43;;;;;;;5.72;1.77;;;;;;;-142.75;100.00;77511.34;5008196;28;20017;-66
2023/05/25 09:53:09;;;;;;;7.55;2.15;;;;;;;-142.75;100.00;77452.25;5008418;28;20029;-65
2023/05/25 09:55:36;;;;;;;10.50;2.03;;;;;;;-142.75;100.00;77395.16;5026044;28;20032;-66
2023/05/25 09:58:01;;;;;;;3.15;1.50;;;;;;;-142.75;93.07;77408.94;5026124;28;20680;-66
2023/05/25 10:00:26;;;;;;;8.48;2.85;;;;;;;-142.75;95.10;77395.16;5025510;28;20030;-66
2023/05/25 10:02:52;;;;;;;9.10;2.40;;;;;;;-142.75;93.63;77403.03;5026095;28;20029;-66
2023/05/25 10:05:18;;;;;;;5.60;2.10;;;;;;;-142.75;94.24;77420.75;5026106;28;20022;-65
2023/05/25 10:07:45;;;;;;;6.63;1.88;;;;;;;-142.75;89.12;77448.34;5026162;28;20025;-66
2023/05/25 10:10:14;;;;;;;6.38;1.92;;;;;;;-142.75;93.15;77397.13;5024725;28;20403;-66
2023/05/25 10:12:41;;;;;;;8.80;1.92;;;;;;;-142.75;92.27;77414.84;5026029;28;20490;-66
2023/05/25 10:15:08;;;;;;;7.35;2.40;;;;;;;-142.75;94.39;77343.97;5025703;28;20119;-66
2023/05/25 10:17:35;;;;;;;5.95;2.00;;;;;;;-142.75;90.91;77271.13;5025900;28;20026;-66
2023/05/25 10:20:04;;;;;;;7.75;1.90;;;;;;;-142.75;80.23;77288.84;5024203;28;20037;-66
2023/05/25 10:22:42;;;;;;;8.35;1.75;;;;;;;-142.75;82.30;77235.69;5025813;28;20036;-66
2023/05/25 10:25:22;;;;;;;4.18;1.70;;;;;;;-142.75;78.18;77247.50;5023977;28;20195;-66
2023/05/25 10:28:00;;;;;;;7.03;2.20;;;;;;;-142.75;80.76;77184.50;5025871;28;20490;-65
2023/05/25 10:30:26;;;;;;;5.25;1.50;;;;;;;-142.75;77.50;77176.63;5025583;28;20025;-66
2023/05/25 10:32:53;;;;;;;6.43;1.55;;;;;;;-142.75;75.34;77147.09;5025800;28;21985;-66
2023/05/25 10:35:20;;;;;;;4.78;1.80;;;;;;;-142.75;75.91;77121.50;5025916;28;20501;-66
2023/05/25 10:37:46;;;;;;;5.45;1.58;;;;;;;-142.75;76.21;77074.25;5025676;28;20056;-65
2023/05/25 10:40:12;;;;;;;6.78;1.73;;;;;;;-142.75;76.70;77091.97;5025412;28;20550;-66
2023/05/25 10:42:39;;;;;;;8.82;2.00;;;;;;;-142.75;74.14;77137.25;5025338;28;20029;-66
2023/05/25 10:45:07;;;;;;;5.00;1.95;;;;;;;-142.75;75.18;77192.38;5025862;28;20684;-66
2023/05/25 10:47:35;;;;;;;5.72;1.90;;;;;;;-142.75;76.49;77233.72;5025321;28;20078;-66
2023/05/25 10:50:02;;;;;;;5.53;1.70;;;;;;;-142.75;80.54;77223.88;5026847;28;20379;-66
2023/05/25 10:52:29;;;;;;;6.22;2.15;;;;;;;-142.75;84.57;77245.53;5029460;28;20024;-65
2023/05/25 10:55:05;;;;;;;6.75;1.88;;;;;;;-142.75;87.11;77263.25;5028898;28;20079;-65
2023/05/25 10:57:31;;;;;;;4.88;2.13;;;;;;;-142.75;86.84;77284.91;5027963;28;20037;-65
2023/05/25 11:00:05;;;;;;;4.22;1.90;;;;;;;-142.75;89.02;77292.78;5028343;28;20030;-66
2023/05/25 11:02:53;;;;;;;5.57;2.05;;;;;;;-142.75;91.94;77314.44;5027797;28;20558;-67
2023/05/25 11:05:24;;;;;;;5.50;1.98;;;;;;;-142.75;90.22;77275.06;5028883;28;20694;-64